createdAt,value
2023-02-11T00:01:35.037Z,5.32
2023-02-11T00:04:06.918Z,6.43
2023-02-11T00:06:38.823Z,6.05
2023-02-11T00:09:10.998Z,5.72
2023-02-11T00:11:42.019Z,5.40
2023-02-11T00:14:15.422Z,5.70
2023-02-11T00:16:46.092Z,5.25
2023-02-11T00:19:16.546Z,6.63
2023-02-11T00:21:47.081Z,6.22
2023-02-11T00:24:19.037Z,5.57
2023-02-11T00:26:49.463Z,6.13
2023-02-11T00:29:20.002Z,5.78
2023-02-11T00:31:50.759Z,6.95
2023-02-11T00:34:21.299Z,6.25
2023-02-11T00:36:52.796Z,6.40
2023-02-11T00:39:24.914Z,6.32
2023-02-11T00:41:55.446Z,6.68
2023-02-11T00:44:26.203Z,6.97
2023-02-11T00:46:56.717Z,6.75
2023-02-11T00:49:27.707Z,6.95
2023-02-11T00:51:58.145Z,6.78
2023-02-11T00:54:30.217Z,6.30
2023-02-11T00:57:00.719Z,6.40
2023-02-11T00:59:31.217Z,7.07
2023-02-11T01:02:01.705Z,7.03
2023-02-11T01:04:32.205Z,6.88
2023-02-11T01:07:02.663Z,7.38
2023-02-11T01:09:34.753Z,7.00
2023-02-11T01:12:05.130Z,6.20
2023-02-11T01:14:35.592Z,6.05
2023-02-11T01:17:07.999Z,6.32
2023-02-11T01:19:39.838Z,6.50
2023-02-11T01:22:10.356Z,6.30
2023-02-11T01:24:42.439Z,6.72
2023-02-11T01:27:12.847Z,6.63
2023-02-11T01:29:51.602Z,6.55
2023-02-11T01:32:22.406Z,6.88
2023-02-11T01:34:53.006Z,7.47
2023-02-11T01:37:23.624Z,7.20
2023-02-11T01:39:58.800Z,6.95
2023-02-11T01:42:29.610Z,6.70
2023-02-11T01:45:01.311Z,6.25
2023-02-11T01:47:31.948Z,7.28
2023-02-11T01:50:04.906Z,5.90
2023-02-11T01:52:39.996Z,5.97
2023-02-11T01:55:32.436Z,6.72
2023-02-11T01:58:07.758Z,6.63
2023-02-11T02:00:41.299Z,6.25
2023-02-11T02:03:15.518Z,6.35
2023-02-11T02:05:50.162Z,7.38
2023-02-11T02:08:26.080Z,6.82
2023-02-11T02:11:01.548Z,6.20
2023-02-11T02:13:35.033Z,5.60
2023-02-11T02:16:09.897Z,6.30
2023-02-11T02:18:50.695Z,5.20
2023-02-11T02:21:44.388Z,6.80
2023-02-11T02:24:47.228Z,5.97
2023-02-11T02:27:40.386Z,5.22
2023-02-11T02:30:52.796Z,5.57
2023-02-11T02:33:40.322Z,4.55
2023-02-11T02:36:20.707Z,4.95
2023-02-11T02:38:57.482Z,5.05
2023-02-11T02:41:32.837Z,5.85
2023-02-11T02:44:03.870Z,5.75
2023-02-11T02:46:36.520Z,6.18
2023-02-11T02:49:15.656Z,5.32
2023-02-11T02:52:26.834Z,4.68
2023-02-11T02:55:19.472Z,4.30
2023-02-11T02:58:09.018Z,4.18
2023-02-11T03:00:47.560Z,4.30
2023-02-11T03:03:25.975Z,4.45
2023-02-11T03:06:04.444Z,4.95
2023-02-11T03:08:41.773Z,4.22
2023-02-11T03:11:14.528Z,6.68
2023-02-11T03:13:46.398Z,6.93
2023-02-11T03:16:25.356Z,5.07
2023-02-11T03:19:02.219Z,4.95
2023-02-11T03:21:36.532Z,4.25
2023-02-11T03:24:13.385Z,3.10
2023-02-11T03:26:46.958Z,2.83
2023-02-11T03:29:23.877Z,2.90
2023-02-11T03:32:02.581Z,2.95
2023-02-11T03:34:38.637Z,3.28
2023-02-11T03:37:16.200Z,7.32
2023-02-11T03:39:51.581Z,7.65
2023-02-11T03:42:22.927Z,3.97
2023-02-11T03:44:56.571Z,4.18
2023-02-11T03:47:30.899Z,3.42
2023-02-11T03:50:05.571Z,3.80
2023-02-11T03:52:39.630Z,4.07
2023-02-11T03:55:16.076Z,4.68
2023-02-11T03:57:46.797Z,5.07
2023-02-11T04:00:17.978Z,6.55
2023-02-11T04:02:49.998Z,6.38
2023-02-11T04:05:20.699Z,5.97
2023-02-11T04:07:52.884Z,6.30
2023-02-11T04:10:23.624Z,6.13
2023-02-11T04:12:54.273Z,5.95
2023-02-11T04:15:24.964Z,5.45
2023-02-11T04:17:55.714Z,4.85
2023-02-11T04:20:26.201Z,5.10
2023-02-11T04:22:58.404Z,4.80
2023-02-11T04:25:28.820Z,5.50
2023-02-11T04:27:59.294Z,5.60
2023-02-11T04:30:29.725Z,6.45
2023-02-11T04:33:01.289Z,7.10
2023-02-11T04:35:31.796Z,7.00
2023-02-11T04:38:03.733Z,8.30
2023-02-11T04:40:34.308Z,10.35
2023-02-11T04:43:05.228Z,9.30
2023-02-11T04:45:36.128Z,11.18
2023-02-11T04:48:07.712Z,7.63
2023-02-11T04:50:38.182Z,7.88
2023-02-11T04:53:10.571Z,11.10
2023-02-11T04:55:41.076Z,18.60
2023-02-11T04:58:12.330Z,11.13
2023-02-11T05:00:42.815Z,12.02
2023-02-11T05:03:13.549Z,20.30
2023-02-11T05:05:44.960Z,10.23
2023-02-11T05:08:17.046Z,14.88
2023-02-11T05:10:50.084Z,10.70
2023-02-11T05:13:20.556Z,11.13
2023-02-11T05:15:51.405Z,8.52
2023-02-11T05:18:22.064Z,8.65
2023-02-11T05:20:52.475Z,8.20
2023-02-11T05:23:24.683Z,7.25
2023-02-11T05:25:55.203Z,6.90
2023-02-11T05:28:25.660Z,6.47
2023-02-11T05:30:56.188Z,5.82
2023-02-11T05:33:27.149Z,5.88
2023-02-11T05:36:02.490Z,5.88
2023-02-11T05:38:34.994Z,6.10
2023-02-11T05:41:06.227Z,6.53
2023-02-11T05:43:37.524Z,8.18
2023-02-11T05:46:08.256Z,15.50
2023-02-11T05:48:38.728Z,14.13
2023-02-11T05:51:09.325Z,8.32
2023-02-11T05:53:41.411Z,7.90
2023-02-11T05:56:12.454Z,6.57
2023-02-11T05:58:42.985Z,6.22
2023-02-11T06:01:13.481Z,6.70
2023-02-11T06:03:44.012Z,8.43
2023-02-11T06:06:14.995Z,7.13
2023-02-11T06:08:47.218Z,9.82
2023-02-11T06:11:18.720Z,6.45
2023-02-11T06:13:49.123Z,6.35
2023-02-11T06:16:19.525Z,12.25
2023-02-11T06:18:50.082Z,7.90
2023-02-11T06:21:20.514Z,6.97
2023-02-11T06:23:52.628Z,7.25
2023-02-11T06:26:25.242Z,6.40
2023-02-11T06:28:55.698Z,5.88
2023-02-11T06:31:26.261Z,5.85
2023-02-11T06:33:57.404Z,6.03
2023-02-11T06:36:27.892Z,6.13
2023-02-11T06:38:59.935Z,6.03
2023-02-11T06:41:30.655Z,6.97
2023-02-11T06:44:04.050Z,6.75
2023-02-11T06:46:34.542Z,6.68
2023-02-11T06:49:05.072Z,6.22
2023-02-11T06:51:35.561Z,9.15
2023-02-11T06:54:09.176Z,4.93
2023-02-11T06:56:42.348Z,6.53
2023-02-11T06:59:17.752Z,7.40
2023-02-11T07:01:48.346Z,5.97
2023-02-11T07:04:18.823Z,5.38
2023-02-11T07:06:49.261Z,5.95
2023-02-11T07:09:24.008Z,4.18
2023-02-11T07:11:54.693Z,6.05
2023-02-11T07:14:25.228Z,6.30
2023-02-11T07:16:55.773Z,4.75
2023-02-11T07:19:26.470Z,4.90
2023-02-11T07:21:56.875Z,6.35
2023-02-11T07:24:28.968Z,8.18
2023-02-11T07:26:59.363Z,7.68
2023-02-11T07:29:29.858Z,7.20
2023-02-11T07:32:00.458Z,7.30
2023-02-11T07:34:30.994Z,5.65
2023-02-11T07:37:01.470Z,5.05
2023-02-11T07:39:33.701Z,5.40
2023-02-11T07:42:04.301Z,3.92
2023-02-11T07:44:35.933Z,3.97
2023-02-11T07:47:06.719Z,4.00
2023-02-11T07:49:37.312Z,3.67
2023-02-11T07:52:07.952Z,3.72
2023-02-11T07:54:40.051Z,3.92
2023-02-11T07:57:10.551Z,4.18
2023-02-11T07:59:40.993Z,3.72
2023-02-11T08:02:17.550Z,3.83
2023-02-11T08:04:49.807Z,3.80
2023-02-11T08:11:13.022Z,4.22
2023-02-11T08:13:44.023Z,3.47
2023-02-11T08:16:21.923Z,3.75
2023-02-11T08:18:53.850Z,3.85
2023-02-11T08:24:51.413Z,3.88
2023-02-11T08:27:30.613Z,4.00
2023-02-11T08:30:01.807Z,4.18
2023-02-11T08:32:32.372Z,4.00
2023-02-11T08:35:10.064Z,4.28
2023-02-11T08:37:40.694Z,3.67
2023-02-11T08:40:11.934Z,3.65
2023-02-11T08:42:44.707Z,7.07
2023-02-11T08:45:15.183Z,5.18
2023-02-11T08:47:45.753Z,4.45
2023-02-11T08:50:16.246Z,5.43
2023-02-11T08:52:49.540Z,5.20
2023-02-11T08:55:20.222Z,5.57
2023-02-11T08:57:54.915Z,5.43
2023-02-11T09:00:37.175Z,6.25
2023-02-11T09:03:07.726Z,6.93
2023-02-11T09:05:41.656Z,9.30
2023-02-11T09:08:15.240Z,10.35
2023-02-11T09:10:48.932Z,9.50
2023-02-11T09:13:26.199Z,7.85
2023-02-11T09:16:03.270Z,8.65
2023-02-11T09:18:37.454Z,5.47
2023-02-11T09:21:09.473Z,5.57
2023-02-11T09:23:39.970Z,8.40
2023-02-11T09:26:16.705Z,10.90
2023-02-11T09:28:49.484Z,24.25
2023-02-11T09:31:23.170Z,26.02
2023-02-11T09:33:58.923Z,68.63
2023-02-11T09:36:31.414Z,21.05
2023-02-11T09:39:03.639Z,16.85
2023-02-11T09:41:51.976Z,9.00
2023-02-11T09:44:27.765Z,7.93
2023-02-11T09:47:03.630Z,5.90
2023-02-11T09:49:42.458Z,5.25
2023-02-11T09:52:22.047Z,7.57
2023-02-11T09:55:01.099Z,10.48
2023-02-11T09:57:36.678Z,8.45
2023-02-11T10:00:23.946Z,9.07
2023-02-11T10:03:23.021Z,19.00
2023-02-11T10:06:26.826Z,10.25
2023-02-11T10:09:09.384Z,4.72
2023-02-11T10:11:52.590Z,4.35
2023-02-11T10:14:36.990Z,4.25
2023-02-11T10:17:23.495Z,4.35
2023-02-11T10:20:09.001Z,4.28
2023-02-11T10:22:46.186Z,5.30
2023-02-11T10:25:23.748Z,5.43
2023-02-11T10:27:57.311Z,5.25
2023-02-11T10:30:34.209Z,5.03
2023-02-11T10:33:15.710Z,4.70
2023-02-11T10:35:47.320Z,4.43
2023-02-11T10:38:18.907Z,4.10
2023-02-11T10:40:50.718Z,4.82
2023-02-11T10:43:26.352Z,22.63
2023-02-11T10:45:59.880Z,54.70
2023-02-11T10:48:44.547Z,17.52
2023-02-11T10:51:23.168Z,5.93
2023-02-11T10:54:14.526Z,4.30
2023-02-11T10:56:51.313Z,5.15
2023-02-11T10:59:29.829Z,6.43
2023-02-11T11:02:04.160Z,10.50
2023-02-11T11:04:47.237Z,5.72
2023-02-11T11:07:25.502Z,4.85
2023-02-11T11:10:00.659Z,7.10
2023-02-11T11:12:35.911Z,8.80
2023-02-11T11:15:23.314Z,13.85
2023-02-11T11:18:04.108Z,7.25
2023-02-11T11:20:58.119Z,5.20
2023-02-11T11:23:31.193Z,4.45
2023-02-11T11:26:10.126Z,5.18
2023-02-11T11:28:45.542Z,5.65
2023-02-11T11:31:20.999Z,5.47
2023-02-11T11:33:54.614Z,5.43
2023-02-11T11:36:37.128Z,5.28
2023-02-11T11:39:24.796Z,9.73
2023-02-11T11:42:00.887Z,23.25
2023-02-11T11:44:36.838Z,44.40
2023-02-11T11:47:43.712Z,17.25
2023-02-11T11:50:31.048Z,8.27
2023-02-11T11:53:10.865Z,5.13
2023-02-11T11:55:47.318Z,7.05
2023-02-11T11:58:21.704Z,16.30
2023-02-11T12:01:04.278Z,7.50
2023-02-11T12:04:04.303Z,6.97
2023-02-11T12:09:26.194Z,6.93
2023-02-11T12:12:15.497Z,16.33
2023-02-11T12:14:58.873Z,30.52
2023-02-11T12:17:53.703Z,25.38
2023-02-11T12:20:35.115Z,11.60
2023-02-11T12:23:36.228Z,7.78
2023-02-11T12:26:18.153Z,9.23
2023-02-11T12:29:06.734Z,14.15
2023-02-11T12:32:01.705Z,6.53
2023-02-11T12:35:07.621Z,6.72
2023-02-11T12:37:56.448Z,5.03
2023-02-11T12:40:35.557Z,5.90
2023-02-11T12:43:23.181Z,5.85
2023-02-11T12:46:09.374Z,8.00
2023-02-11T12:49:05.883Z,8.35
2023-02-11T12:51:48.312Z,7.50
2023-02-11T12:54:28.415Z,7.35
2023-02-11T12:59:50.818Z,8.98
2023-02-11T13:02:33.193Z,12.27
2023-02-11T13:05:33.876Z,17.70
2023-02-11T13:08:12.390Z,23.88
2023-02-11T13:10:47.187Z,26.70
2023-02-11T13:13:24.010Z,26.42
2023-02-11T13:16:01.970Z,28.48
2023-02-11T13:18:50.521Z,18.30
2023-02-11T13:21:35.998Z,11.48
2023-02-11T13:24:18.589Z,10.73
2023-02-11T13:26:57.165Z,9.35
2023-02-11T13:29:40.157Z,11.15
2023-02-11T13:32:17.105Z,11.15
2023-02-11T13:35:06.148Z,11.75
2023-02-11T13:37:41.610Z,13.45
2023-02-11T13:40:27.196Z,14.32
2023-02-11T13:43:05.771Z,12.02
2023-02-11T13:45:43.652Z,11.30
2023-02-11T13:48:25.440Z,9.68
2023-02-11T13:50:59.880Z,9.68
2023-02-11T13:53:32.773Z,8.23
2023-02-11T13:56:12.954Z,8.00
2023-02-11T13:58:52.786Z,6.80
2023-02-11T14:02:05.973Z,5.87
2023-02-11T14:05:07.444Z,6.03
2023-02-11T14:07:55.589Z,4.90
2023-02-11T14:10:54.618Z,5.18
2023-02-11T14:13:28.915Z,5.30
2023-02-11T14:16:12.331Z,5.43
2023-02-11T14:19:05.387Z,6.03
2023-02-11T14:21:41.468Z,4.93
2023-02-11T14:24:50.107Z,7.43
2023-02-11T14:27:34.809Z,7.78
2023-02-11T14:30:30.398Z,7.93
2023-02-11T14:33:31.154Z,5.93
2023-02-11T14:36:11.620Z,6.63
2023-02-11T14:39:02.233Z,8.50
2023-02-11T14:41:38.942Z,8.70
2023-02-11T14:44:18.020Z,8.82
2023-02-11T14:46:51.002Z,8.98
2023-02-11T14:49:29.979Z,6.80
2023-02-11T14:52:07.282Z,4.68
2023-02-11T14:54:40.924Z,5.45
2023-02-11T14:57:17.387Z,6.55
2023-02-11T15:00:00.172Z,6.05
2023-02-11T15:02:36.826Z,7.47
2023-02-11T15:05:24.930Z,9.30
2023-02-11T15:07:59.081Z,9.85
2023-02-11T15:10:35.965Z,9.82
2023-02-11T15:13:08.394Z,10.45
2023-02-11T15:15:43.601Z,8.52
2023-02-11T15:18:23.912Z,10.18
2023-02-11T15:20:55.723Z,9.27
2023-02-11T15:23:33.073Z,8.45
2023-02-11T15:26:11.180Z,9.45
2023-02-11T15:28:50.198Z,8.85
2023-02-11T15:31:26.524Z,7.57
2023-02-11T15:33:58.602Z,7.43
2023-02-11T15:36:34.278Z,4.95
2023-02-11T15:39:23.714Z,4.88
2023-02-11T15:41:57.134Z,4.68
2023-02-11T15:44:33.355Z,5.00
2023-02-11T15:47:16.985Z,4.15
2023-02-11T15:49:49.405Z,4.25
2023-02-11T15:52:27.811Z,3.97
2023-02-11T15:55:02.569Z,4.05
2023-02-11T15:57:36.616Z,3.10
2023-02-11T16:00:08.986Z,3.78
2023-02-11T16:02:45.872Z,2.88
2023-02-11T16:05:30.334Z,3.40
2023-02-11T16:08:02.074Z,4.00
2023-02-11T16:10:39.583Z,3.55
2023-02-11T16:13:23.152Z,3.00
2023-02-11T16:15:57.721Z,3.90
2023-02-11T16:18:39.383Z,4.40
2023-02-11T16:21:18.212Z,3.72
2023-02-11T16:23:55.870Z,2.97
2023-02-11T16:26:32.915Z,2.83
2023-02-11T16:29:15.638Z,3.28
2023-02-11T16:31:48.040Z,3.10
2023-02-11T16:34:21.227Z,3.25
2023-02-11T16:36:52.919Z,3.28
2023-02-11T16:39:25.076Z,2.92
2023-02-11T16:41:56.667Z,3.65
2023-02-11T16:44:28.943Z,4.80
2023-02-11T16:47:04.301Z,10.00
2023-02-11T16:49:37.669Z,14.52
2023-02-11T16:52:11.506Z,9.65
2023-02-11T16:54:45.137Z,6.03
2023-02-11T16:57:17.483Z,4.43
2023-02-11T16:59:55.908Z,3.30
2023-02-11T17:02:29.296Z,3.92
2023-02-11T17:05:04.791Z,4.28
2023-02-11T17:07:36.216Z,3.90
2023-02-11T17:10:06.998Z,3.80
2023-02-11T17:12:37.697Z,3.75
2023-02-11T17:15:10.654Z,3.50
2023-02-11T17:17:41.258Z,19.40
2023-02-11T17:20:14.523Z,28.10
2023-02-11T17:22:45.248Z,9.10
2023-02-11T17:25:15.972Z,7.57
2023-02-11T17:27:46.744Z,6.80
2023-02-11T17:30:19.442Z,6.82
2023-02-11T17:32:50.050Z,4.97
2023-02-11T17:35:20.750Z,6.88
2023-02-11T17:37:52.006Z,7.80
2023-02-11T17:40:22.844Z,7.68
2023-02-11T17:42:54.004Z,6.35
2023-02-11T17:45:26.303Z,5.15
2023-02-11T17:47:59.879Z,4.38
2023-02-11T17:50:30.550Z,4.63
2023-02-11T17:53:01.744Z,4.15
2023-02-11T17:55:36.280Z,4.22
2023-02-11T17:58:07.032Z,5.82
2023-02-11T18:00:39.405Z,4.25
2023-02-11T18:03:10.559Z,4.68
2023-02-11T18:05:41.456Z,4.50
2023-02-11T18:08:12.092Z,5.03
2023-02-11T18:10:59.104Z,4.63
2023-02-11T18:13:33.510Z,5.05
2023-02-11T18:16:20.470Z,4.60
2023-02-11T18:19:02.548Z,4.47
2023-02-11T18:21:45.133Z,4.95
2023-02-11T18:24:28.822Z,4.60
2023-02-11T18:27:04.998Z,4.32
2023-02-11T18:29:35.986Z,4.43
2023-02-11T18:32:10.407Z,4.65
2023-02-11T18:34:45.123Z,3.67
2023-02-11T18:37:26.065Z,4.18
2023-02-11T18:39:56.808Z,4.20
2023-02-11T18:42:28.807Z,4.47
2023-02-11T18:44:59.311Z,4.15
2023-02-11T18:47:31.600Z,4.28
2023-02-11T18:50:02.141Z,4.35
2023-02-11T18:52:34.886Z,4.35
2023-02-11T18:55:05.453Z,3.67
2023-02-11T18:57:36.128Z,3.42
2023-02-11T19:00:12.333Z,3.13
2023-02-11T19:02:44.428Z,3.55
2023-02-11T19:05:15.035Z,3.60
2023-02-11T19:07:45.616Z,3.45
2023-02-11T19:10:16.252Z,3.40
2023-02-11T19:12:47.404Z,4.63
2023-02-11T19:15:17.988Z,6.03
2023-02-11T19:17:50.193Z,3.78
2023-02-11T19:20:21.032Z,3.80
2023-02-11T19:22:51.786Z,3.50
2023-02-11T19:25:22.560Z,3.05
2023-02-11T19:27:54.016Z,3.33
2023-02-11T19:30:24.714Z,3.33
2023-02-11T19:32:58.511Z,3.13
2023-02-11T19:35:29.027Z,3.30
2023-02-11T19:37:59.587Z,3.75
2023-02-11T19:40:30.176Z,3.17
2023-02-11T19:43:00.674Z,3.70
2023-02-11T19:45:31.290Z,3.88
2023-02-11T19:48:06.259Z,3.70
2023-02-11T19:50:36.798Z,3.53
2023-02-11T19:53:07.364Z,3.25
2023-02-11T19:58:22.098Z,3.40
2023-02-11T20:00:53.129Z,3.50
2023-02-11T20:03:28.321Z,3.88
2023-02-11T20:06:01.845Z,4.38
2023-02-11T20:08:33.947Z,5.10
2023-02-11T20:11:14.914Z,4.47
2023-02-11T20:13:46.950Z,4.53
2023-02-11T20:16:36.838Z,3.78
2023-02-11T20:19:23.869Z,3.50
2023-02-11T20:21:57.957Z,3.97
2023-02-11T20:24:30.764Z,3.72
2023-02-11T20:27:01.271Z,3.97
2023-02-11T20:29:32.725Z,3.90
2023-02-11T20:32:08.739Z,3.60
2023-02-11T20:34:40.904Z,3.75
2023-02-11T20:37:11.366Z,4.10
2023-02-11T20:39:42.858Z,3.63
2023-02-11T20:42:16.158Z,4.63
2023-02-11T20:44:46.678Z,4.38
2023-02-11T20:47:20.101Z,4.72
2023-02-11T20:49:52.897Z,4.45
2023-02-11T20:52:23.419Z,5.57
2023-02-11T20:54:53.896Z,6.13
2023-02-11T20:57:24.439Z,7.60
2023-02-11T20:59:55.190Z,6.65
2023-02-11T21:02:25.638Z,7.30
2023-02-11T21:04:57.656Z,7.00
2023-02-11T21:07:30.020Z,6.32
2023-02-11T21:10:00.634Z,5.60
2023-02-11T21:12:31.041Z,5.18
2023-02-11T21:15:01.556Z,5.65
2023-02-11T21:17:32.071Z,6.05
2023-02-11T21:20:04.022Z,5.50
2023-02-11T21:22:34.527Z,6.03
2023-02-11T21:25:06.896Z,5.28
2023-02-11T21:27:37.383Z,5.28
2023-02-11T21:30:08.681Z,5.28
2023-02-11T21:32:39.039Z,4.68
2023-02-11T21:35:11.769Z,5.22
2023-02-11T21:37:42.256Z,5.05
2023-02-11T21:40:15.666Z,4.80
2023-02-11T21:42:46.185Z,4.05
2023-02-11T21:45:16.581Z,4.60
2023-02-11T21:47:47.023Z,3.92
2023-02-11T21:50:19.349Z,4.43
2023-02-11T21:52:49.784Z,4.28
2023-02-11T21:55:20.536Z,4.25
2023-02-11T21:57:51.092Z,6.45
2023-02-11T22:00:24.389Z,6.05
2023-02-11T22:02:54.785Z,7.25
2023-02-11T22:05:28.060Z,6.05
2023-02-11T22:07:58.620Z,5.25
2023-02-11T22:10:29.105Z,5.45
2023-02-11T22:12:59.576Z,5.65
2023-02-11T22:15:30.109Z,6.20
2023-02-11T22:18:00.496Z,6.03
2023-02-11T22:20:32.609Z,6.15
2023-02-11T22:23:03.561Z,6.65
2023-02-11T22:25:33.966Z,6.32
2023-02-11T22:28:04.422Z,6.22
2023-02-11T22:30:34.966Z,5.90
2023-02-11T22:33:06.505Z,6.00
2023-02-11T22:35:38.517Z,5.00
2023-02-11T22:38:08.888Z,4.55
2023-02-11T22:40:44.322Z,4.28
2023-02-11T22:43:14.819Z,4.13
2023-02-11T22:45:45.301Z,6.30
2023-02-11T22:48:15.855Z,6.78
2023-02-11T22:50:47.834Z,9.68
2023-02-11T22:53:18.233Z,4.25
2023-02-11T22:55:48.822Z,3.67
2023-02-11T22:58:19.665Z,3.55
2023-02-11T23:00:50.133Z,3.55
2023-02-11T23:03:20.613Z,3.47
2023-02-11T23:05:53.249Z,3.90
2023-02-11T23:08:24.080Z,3.70
2023-02-11T23:10:54.660Z,4.03
2023-02-11T23:13:25.256Z,6.82
2023-02-11T23:15:56.013Z,8.57
2023-02-11T23:18:26.668Z,4.70
2023-02-11T23:20:58.777Z,3.30
2023-02-11T23:23:29.244Z,4.50
2023-02-11T23:25:59.780Z,4.38
2023-02-11T23:28:30.771Z,4.18
2023-02-11T23:31:01.373Z,4.50
2023-02-11T23:33:31.869Z,3.92
2023-02-11T23:36:04.233Z,4.07
2023-02-11T23:38:34.859Z,4.40
2023-02-11T23:41:05.631Z,4.43
2023-02-11T23:43:36.175Z,4.18
2023-02-11T23:46:07.062Z,3.97
2023-02-11T23:48:38.514Z,4.47
2023-02-11T23:51:12.060Z,4.15
2023-02-11T23:53:43.185Z,5.07
2023-02-11T23:56:18.256Z,4.18
2023-02-11T23:58:50.735Z,4.50
